sensor_id;sensor_type;location;lat;lon;timestamp;P1;durP1;ratioP1;P2;durP2;ratioP2
54823;SDS011;40724;53.196;5.980;2023-05-15T00:01:22;28.33;;;20.60;;
54823;SDS011;40724;53.196;5.980;2023-05-15T00:03:48;35.10;;;22.00;;
54823;SDS011;40724;53.196;5.980;2023-05-15T00:06:15;34.85;;;23.05;;
54823;SDS011;40724;53.196;5.980;2023-05-15T00:08:42;29.70;;;21.35;;
54823;SDS011;40724;53.196;5.980;2023-05-15T00:11:08;36.72;;;22.15;;
54823;SDS011;40724;53.196;5.980;2023-05-15T00:13:34;29.33;;;19.70;;
54823;SDS011;40724;53.196;5.980;2023-05-15T00:16:03;28.23;;;19.85;;
54823;SDS011;40724;53.196;5.980;2023-05-15T00:18:29;31.83;;;20.67;;
54823;SDS011;40724;53.196;5.980;2023-05-15T00:20:55;28.45;;;18.20;;
54823;SDS011;40724;53.196;5.980;2023-05-15T00:23:22;26.48;;;18.98;;
54823;SDS011;40724;53.196;5.980;2023-05-15T00:25:48;24.05;;;18.50;;
54823;SDS011;40724;53.196;5.980;2023-05-15T00:28:14;24.15;;;17.95;;
54823;SDS011;40724;53.196;5.980;2023-05-15T00:30:40;23.60;;;17.25;;
54823;SDS011;40724;53.196;5.980;2023-05-15T00:33:06;24.20;;;17.60;;
54823;SDS011;40724;53.196;5.980;2023-05-15T00:35:33;26.48;;;18.50;;
54823;SDS011;40724;53.196;5.980;2023-05-15T00:37:59;25.90;;;17.70;;
54823;SDS011;40724;53.196;5.980;2023-05-15T00:40:25;25.35;;;17.00;;
54823;SDS011;40724;53.196;5.980;2023-05-15T00:42:52;23.38;;;16.95;;
54823;SDS011;40724;53.196;5.980;2023-05-15T00:45:19;30.42;;;20.45;;
54823;SDS011;40724;53.196;5.980;2023-05-15T00:47:46;25.80;;;18.02;;
54823;SDS011;40724;53.196;5.980;2023-05-15T00:50:12;29.35;;;17.40;;
54823;SDS011;40724;53.196;5.980;2023-05-15T00:52:39;30.13;;;19.08;;
54823;SDS011;40724;53.196;5.980;2023-05-15T00:55:05;26.25;;;17.85;;
54823;SDS011;40724;53.196;5.980;2023-05-15T00:57:32;26.60;;;20.17;;
54823;SDS011;40724;53.196;5.980;2023-05-15T00:59:58;27.98;;;18.70;;
54823;SDS011;40724;53.196;5.980;2023-05-15T01:02:25;28.65;;;20.38;;
54823;SDS011;40724;53.196;5.980;2023-05-15T01:04:51;22.70;;;17.00;;
54823;SDS011;40724;53.196;5.980;2023-05-15T01:07:17;27.55;;;18.25;;
54823;SDS011;40724;53.196;5.980;2023-05-15T01:09:43;24.98;;;17.50;;
54823;SDS011;40724;53.196;5.980;2023-05-15T01:12:13;31.40;;;17.77;;
54823;SDS011;40724;53.196;5.980;2023-05-15T01:14:40;25.27;;;17.70;;
54823;SDS011;40724;53.196;5.980;2023-05-15T01:17:07;29.02;;;18.20;;
54823;SDS011;40724;53.196;5.980;2023-05-15T01:19:33;26.38;;;17.75;;
54823;SDS011;40724;53.196;5.980;2023-05-15T01:24:56;26.92;;;19.35;;
54823;SDS011;40724;53.196;5.980;2023-05-15T01:37:43;23.67;;;16.95;;
54823;SDS011;40724;53.196;5.980;2023-05-15T01:40:10;29.45;;;18.15;;
54823;SDS011;40724;53.196;5.980;2023-05-15T01:42:37;32.25;;;17.70;;
54823;SDS011;40724;53.196;5.980;2023-05-15T01:45:07;25.30;;;19.48;;
54823;SDS011;40724;53.196;5.980;2023-05-15T01:47:45;26.00;;;19.00;;
54823;SDS011;40724;53.196;5.980;2023-05-15T01:50:13;29.50;;;20.10;;
54823;SDS011;40724;53.196;5.980;2023-05-15T01:52:58;26.88;;;20.83;;
54823;SDS011;40724;53.196;5.980;2023-05-15T01:55:25;31.20;;;22.38;;
54823;SDS011;40724;53.196;5.980;2023-05-15T01:57:52;28.73;;;22.25;;
54823;SDS011;40724;53.196;5.980;2023-05-15T02:00:18;25.38;;;20.17;;
54823;SDS011;40724;53.196;5.980;2023-05-15T02:02:45;28.20;;;21.30;;
54823;SDS011;40724;53.196;5.980;2023-05-15T02:05:13;28.52;;;21.00;;
54823;SDS011;40724;53.196;5.980;2023-05-15T02:07:40;29.17;;;19.35;;
54823;SDS011;40724;53.196;5.980;2023-05-15T02:10:07;24.13;;;17.30;;
54823;SDS011;40724;53.196;5.980;2023-05-15T02:12:34;28.13;;;19.42;;
54823;SDS011;40724;53.196;5.980;2023-05-15T02:15:00;29.35;;;20.58;;
54823;SDS011;40724;53.196;5.980;2023-05-15T02:17:28;27.42;;;19.80;;
54823;SDS011;40724;53.196;5.980;2023-05-15T02:19:54;24.48;;;18.85;;
54823;SDS011;40724;53.196;5.980;2023-05-15T02:22:20;30.33;;;20.30;;
54823;SDS011;40724;53.196;5.980;2023-05-15T02:24:46;27.20;;;19.42;;
54823;SDS011;40724;53.196;5.980;2023-05-15T02:27:19;27.02;;;19.13;;
54823;SDS011;40724;53.196;5.980;2023-05-15T02:34:46;22.55;;;16.45;;
54823;SDS011;40724;53.196;5.980;2023-05-15T02:37:15;22.38;;;16.52;;
54823;SDS011;40724;53.196;5.980;2023-05-15T02:39:44;24.45;;;15.48;;
54823;SDS011;40724;53.196;5.980;2023-05-15T02:42:11;20.20;;;14.27;;
54823;SDS011;40724;53.196;5.980;2023-05-15T02:44:38;21.83;;;14.88;;
54823;SDS011;40724;53.196;5.980;2023-05-15T02:47:05;19.95;;;14.98;;
54823;SDS011;40724;53.196;5.980;2023-05-15T02:49:32;22.33;;;14.35;;
54823;SDS011;40724;53.196;5.980;2023-05-15T02:51:58;20.23;;;15.20;;
54823;SDS011;40724;53.196;5.980;2023-05-15T02:54:24;20.48;;;14.60;;
54823;SDS011;40724;53.196;5.980;2023-05-15T02:56:51;19.00;;;14.25;;
54823;SDS011;40724;53.196;5.980;2023-05-15T02:59:17;20.30;;;14.00;;
54823;SDS011;40724;53.196;5.980;2023-05-15T03:01:44;17.90;;;14.60;;
54823;SDS011;40724;53.196;5.980;2023-05-15T03:04:13;18.95;;;13.25;;
54823;SDS011;40724;53.196;5.980;2023-05-15T03:06:39;19.23;;;13.48;;
54823;SDS011;40724;53.196;5.980;2023-05-15T03:09:06;18.13;;;13.70;;
54823;SDS011;40724;53.196;5.980;2023-05-15T03:11:32;19.75;;;13.75;;
54823;SDS011;40724;53.196;5.980;2023-05-15T03:13:58;18.00;;;13.15;;
54823;SDS011;40724;53.196;5.980;2023-05-15T03:16:25;19.80;;;13.18;;
54823;SDS011;40724;53.196;5.980;2023-05-15T03:18:51;19.23;;;14.02;;
54823;SDS011;40724;53.196;5.980;2023-05-15T03:21:18;21.52;;;13.90;;
54823;SDS011;40724;53.196;5.980;2023-05-15T03:23:44;25.48;;;15.25;;
54823;SDS011;40724;53.196;5.980;2023-05-15T03:26:10;19.00;;;13.68;;
54823;SDS011;40724;53.196;5.980;2023-05-15T03:28:36;18.15;;;14.05;;
54823;SDS011;40724;53.196;5.980;2023-05-15T03:31:02;21.60;;;14.00;;
54823;SDS011;40724;53.196;5.980;2023-05-15T03:33:29;18.70;;;14.68;;
54823;SDS011;40724;53.196;5.980;2023-05-15T03:35:55;21.40;;;15.13;;
54823;SDS011;40724;53.196;5.980;2023-05-15T03:38:22;21.10;;;14.57;;
54823;SDS011;40724;53.196;5.980;2023-05-15T03:40:48;20.38;;;14.35;;
54823;SDS011;40724;53.196;5.980;2023-05-15T03:43:14;19.73;;;15.10;;
54823;SDS011;40724;53.196;5.980;2023-05-15T03:45:40;24.10;;;17.17;;
54823;SDS011;40724;53.196;5.980;2023-05-15T03:48:06;23.73;;;17.40;;
54823;SDS011;40724;53.196;5.980;2023-05-15T03:50:32;29.48;;;18.48;;
54823;SDS011;40724;53.196;5.980;2023-05-15T03:52:59;23.98;;;17.13;;
54823;SDS011;40724;53.196;5.980;2023-05-15T03:55:25;22.48;;;15.25;;
54823;SDS011;40724;53.196;5.980;2023-05-15T03:57:51;21.23;;;14.90;;
54823;SDS011;40724;53.196;5.980;2023-05-15T04:00:17;25.83;;;17.92;;
54823;SDS011;40724;53.196;5.980;2023-05-15T04:02:43;26.27;;;16.90;;
54823;SDS011;40724;53.196;5.980;2023-05-15T04:05:09;21.63;;;17.73;;
54823;SDS011;40724;53.196;5.980;2023-05-15T04:07:36;21.15;;;16.60;;
54823;SDS011;40724;53.196;5.980;2023-05-15T04:10:02;26.90;;;19.02;;
54823;SDS011;40724;53.196;5.980;2023-05-15T04:12:30;23.30;;;16.75;;
54823;SDS011;40724;53.196;5.980;2023-05-15T04:15:13;21.48;;;16.25;;
54823;SDS011;40724;53.196;5.980;2023-05-15T04:20:06;20.02;;;17.05;;
54823;SDS011;40724;53.196;5.980;2023-05-15T04:22:33;23.65;;;17.15;;
54823;SDS011;40724;53.196;5.980;2023-05-15T04:24:59;23.27;;;18.27;;
54823;SDS011;40724;53.196;5.980;2023-05-15T04:27:25;24.80;;;18.55;;
54823;SDS011;40724;53.196;5.980;2023-05-15T04:29:51;24.05;;;19.25;;
54823;SDS011;40724;53.196;5.980;2023-05-15T04:32:17;26.77;;;17.55;;
54823;SDS011;40724;53.196;5.980;2023-05-15T04:34:44;27.63;;;17.50;;
54823;SDS011;40724;53.196;5.980;2023-05-15T04:37:10;26.05;;;17.35;;
54823;SDS011;40724;53.196;5.980;2023-05-15T04:39:36;28.88;;;17.92;;
54823;SDS011;40724;53.196;5.980;2023-05-15T04:42:02;23.70;;;18.13;;
54823;SDS011;40724;53.196;5.980;2023-05-15T04:44:29;25.25;;;17.63;;
54823;SDS011;40724;53.196;5.980;2023-05-15T04:46:55;22.13;;;17.13;;
54823;SDS011;40724;53.196;5.980;2023-05-15T04:49:21;25.50;;;17.88;;
54823;SDS011;40724;53.196;5.980;2023-05-15T04:51:47;24.50;;;18.25;;
54823;SDS011;40724;53.196;5.980;2023-05-15T04:54:13;22.15;;;16.25;;
54823;SDS011;40724;53.196;5.980;2023-05-15T04:56:39;21.63;;;15.93;;
54823;SDS011;40724;53.196;5.980;2023-05-15T04:59:06;21.23;;;16.52;;
54823;SDS011;40724;53.196;5.980;2023-05-15T05:01:32;23.40;;;17.65;;
54823;SDS011;40724;53.196;5.980;2023-05-15T05:03:58;22.88;;;15.55;;
54823;SDS011;40724;53.196;5.980;2023-05-15T05:06:24;22.30;;;17.42;;
54823;SDS011;40724;53.196;5.980;2023-05-15T05:08:50;22.13;;;16.40;;
54823;SDS011;40724;53.196;5.980;2023-05-15T05:11:16;18.45;;;15.63;;
54823;SDS011;40724;53.196;5.980;2023-05-15T05:13:42;23.67;;;15.82;;
54823;SDS011;40724;53.196;5.980;2023-05-15T05:16:09;19.92;;;16.50;;
54823;SDS011;40724;53.196;5.980;2023-05-15T05:18:35;21.48;;;15.45;;
54823;SDS011;40724;53.196;5.980;2023-05-15T05:21:02;24.33;;;16.35;;
54823;SDS011;40724;53.196;5.980;2023-05-15T05:23:29;22.67;;;16.48;;
54823;SDS011;40724;53.196;5.980;2023-05-15T05:25:55;22.73;;;17.23;;
54823;SDS011;40724;53.196;5.980;2023-05-15T05:28:21;21.48;;;16.13;;
54823;SDS011;40724;53.196;5.980;2023-05-15T05:30:48;20.92;;;15.77;;
54823;SDS011;40724;53.196;5.980;2023-05-15T05:33:14;22.25;;;16.73;;
54823;SDS011;40724;53.196;5.980;2023-05-15T05:35:40;23.63;;;17.77;;
54823;SDS011;40724;53.196;5.980;2023-05-15T05:38:06;23.90;;;16.98;;
54823;SDS011;40724;53.196;5.980;2023-05-15T05:40:33;21.55;;;16.55;;
54823;SDS011;40724;53.196;5.980;2023-05-15T05:42:59;22.80;;;16.88;;
54823;SDS011;40724;53.196;5.980;2023-05-15T05:45:25;26.95;;;17.23;;
54823;SDS011;40724;53.196;5.980;2023-05-15T05:47:51;22.98;;;17.30;;
54823;SDS011;40724;53.196;5.980;2023-05-15T05:50:18;18.80;;;14.43;;
54823;SDS011;40724;53.196;5.980;2023-05-15T05:52:44;22.00;;;16.23;;
54823;SDS011;40724;53.196;5.980;2023-05-15T05:55:10;26.70;;;18.48;;
54823;SDS011;40724;53.196;5.980;2023-05-15T05:57:36;24.95;;;17.77;;
54823;SDS011;40724;53.196;5.980;2023-05-15T06:00:02;22.52;;;16.50;;
54823;SDS011;40724;53.196;5.980;2023-05-15T06:02:35;27.77;;;17.83;;
54823;SDS011;40724;53.196;5.980;2023-05-15T06:05:02;24.65;;;17.90;;
54823;SDS011;40724;53.196;5.980;2023-05-15T06:07:28;21.98;;;16.52;;
54823;SDS011;40724;53.196;5.980;2023-05-15T06:09:54;25.05;;;18.33;;
54823;SDS011;40724;53.196;5.980;2023-05-15T06:12:21;23.65;;;17.35;;
54823;SDS011;40724;53.196;5.980;2023-05-15T06:14:47;24.05;;;17.23;;
54823;SDS011;40724;53.196;5.980;2023-05-15T06:17:13;22.38;;;16.33;;
54823;SDS011;40724;53.196;5.980;2023-05-15T06:19:39;20.02;;;14.75;;
54823;SDS011;40724;53.196;5.980;2023-05-15T06:22:05;17.70;;;14.52;;
54823;SDS011;40724;53.196;5.980;2023-05-15T06:24:32;23.77;;;14.75;;
54823;SDS011;40724;53.196;5.980;2023-05-15T06:26:58;23.67;;;15.05;;
54823;SDS011;40724;53.196;5.980;2023-05-15T06:29:25;16.25;;;11.85;;
54823;SDS011;40724;53.196;5.980;2023-05-15T06:31:51;17.63;;;13.45;;
54823;SDS011;40724;53.196;5.980;2023-05-15T06:34:17;19.50;;;13.73;;
54823;SDS011;40724;53.196;5.980;2023-05-15T06:36:43;16.83;;;13.18;;
54823;SDS011;40724;53.196;5.980;2023-05-15T06:39:09;18.42;;;14.10;;
54823;SDS011;40724;53.196;5.980;2023-05-15T06:41:36;20.00;;;11.77;;
54823;SDS011;40724;53.196;5.980;2023-05-15T06:44:02;14.48;;;12.13;;
54823;SDS011;40724;53.196;5.980;2023-05-15T06:46:29;16.92;;;11.63;;
54823;SDS011;40724;53.196;5.980;2023-05-15T06:48:55;15.65;;;11.60;;
54823;SDS011;40724;53.196;5.980;2023-05-15T06:51:21;18.30;;;12.48;;
54823;SDS011;40724;53.196;5.980;2023-05-15T06:53:47;17.90;;;12.05;;
54823;SDS011;40724;53.196;5.980;2023-05-15T06:56:13;17.48;;;13.68;;
54823;SDS011;40724;53.196;5.980;2023-05-15T06:58:39;14.85;;;12.55;;
54823;SDS011;40724;53.196;5.980;2023-05-15T07:01:07;17.17;;;12.68;;
54823;SDS011;40724;53.196;5.980;2023-05-15T07:03:33;13.15;;;11.10;;
54823;SDS011;40724;53.196;5.980;2023-05-15T07:05:59;22.10;;;12.95;;
54823;SDS011;40724;53.196;5.980;2023-05-15T07:08:26;14.60;;;11.38;;
54823;SDS011;40724;53.196;5.980;2023-05-15T07:10:52;18.95;;;12.40;;
54823;SDS011;40724;53.196;5.980;2023-05-15T07:13:19;14.82;;;11.57;;
54823;SDS011;40724;53.196;5.980;2023-05-15T07:15:45;14.55;;;11.10;;
54823;SDS011;40724;53.196;5.980;2023-05-15T07:18:11;16.00;;;11.77;;
54823;SDS011;40724;53.196;5.980;2023-05-15T07:20:37;15.45;;;13.10;;
54823;SDS011;40724;53.196;5.980;2023-05-15T07:23:04;14.90;;;12.20;;
54823;SDS011;40724;53.196;5.980;2023-05-15T07:25:30;17.73;;;12.82;;
54823;SDS011;40724;53.196;5.980;2023-05-15T07:27:56;15.77;;;12.13;;
54823;SDS011;40724;53.196;5.980;2023-05-15T07:30:22;21.02;;;14.93;;
54823;SDS011;40724;53.196;5.980;2023-05-15T07:32:49;16.20;;;12.57;;
54823;SDS011;40724;53.196;5.980;2023-05-15T07:35:15;18.65;;;13.75;;
54823;SDS011;40724;53.196;5.980;2023-05-15T07:37:41;18.85;;;13.98;;
54823;SDS011;40724;53.196;5.980;2023-05-15T07:40:07;15.95;;;11.90;;
54823;SDS011;40724;53.196;5.980;2023-05-15T07:42:33;14.73;;;11.43;;
54823;SDS011;40724;53.196;5.980;2023-05-15T07:44:59;16.52;;;12.52;;
54823;SDS011;40724;53.196;5.980;2023-05-15T07:47:25;13.90;;;11.13;;
54823;SDS011;40724;53.196;5.980;2023-05-15T07:49:52;15.52;;;12.48;;
54823;SDS011;40724;53.196;5.980;2023-05-15T07:52:18;17.83;;;13.20;;
54823;SDS011;40724;53.196;5.980;2023-05-15T07:54:44;19.27;;;13.85;;
54823;SDS011;40724;53.196;5.980;2023-05-15T07:57:10;16.08;;;11.18;;
54823;SDS011;40724;53.196;5.980;2023-05-15T07:59:37;15.68;;;12.55;;
54823;SDS011;40724;53.196;5.980;2023-05-15T08:02:03;20.25;;;13.23;;
54823;SDS011;40724;53.196;5.980;2023-05-15T08:04:29;16.95;;;13.15;;
54823;SDS011;40724;53.196;5.980;2023-05-15T08:06:55;17.27;;;13.27;;
54823;SDS011;40724;53.196;5.980;2023-05-15T08:09:22;17.45;;;13.13;;
54823;SDS011;40724;53.196;5.980;2023-05-15T08:11:48;16.73;;;12.38;;
54823;SDS011;40724;53.196;5.980;2023-05-15T08:14:14;21.42;;;14.32;;
54823;SDS011;40724;53.196;5.980;2023-05-15T08:16:40;15.82;;;12.05;;
54823;SDS011;40724;53.196;5.980;2023-05-15T08:19:06;15.82;;;12.70;;
54823;SDS011;40724;53.196;5.980;2023-05-15T08:21:34;22.15;;;13.55;;
54823;SDS011;40724;53.196;5.980;2023-05-15T08:24:00;17.10;;;12.05;;
54823;SDS011;40724;53.196;5.980;2023-05-15T08:26:25;14.40;;;11.20;;
54823;SDS011;40724;53.196;5.980;2023-05-15T08:28:51;19.73;;;13.05;;
54823;SDS011;40724;53.196;5.980;2023-05-15T08:31:17;16.38;;;12.95;;
54823;SDS011;40724;53.196;5.980;2023-05-15T08:33:43;16.83;;;14.15;;
54823;SDS011;40724;53.196;5.980;2023-05-15T08:36:09;18.35;;;13.43;;
54823;SDS011;40724;53.196;5.980;2023-05-15T08:38:35;16.48;;;13.52;;
54823;SDS011;40724;53.196;5.980;2023-05-15T08:41:01;17.00;;;13.32;;
54823;SDS011;40724;53.196;5.980;2023-05-15T08:43:32;15.35;;;13.02;;
54823;SDS011;40724;53.196;5.980;2023-05-15T08:46:01;15.82;;;12.55;;
54823;SDS011;40724;53.196;5.980;2023-05-15T08:48:28;16.05;;;13.75;;
54823;SDS011;40724;53.196;5.980;2023-05-15T08:50:55;19.63;;;12.90;;
54823;SDS011;40724;53.196;5.980;2023-05-15T08:53:22;18.10;;;14.88;;
54823;SDS011;40724;53.196;5.980;2023-05-15T08:55:48;19.17;;;13.95;;
54823;SDS011;40724;53.196;5.980;2023-05-15T08:58:15;18.90;;;12.68;;
54823;SDS011;40724;53.196;5.980;2023-05-15T09:00:46;19.05;;;14.38;;
54823;SDS011;40724;53.196;5.980;2023-05-15T09:03:13;18.73;;;14.13;;
54823;SDS011;40724;53.196;5.980;2023-05-15T09:05:40;17.85;;;12.82;;
54823;SDS011;40724;53.196;5.980;2023-05-15T09:08:06;18.10;;;14.80;;
54823;SDS011;40724;53.196;5.980;2023-05-15T09:10:33;16.52;;;13.05;;
54823;SDS011;40724;53.196;5.980;2023-05-15T09:13:00;46.30;;;21.48;;
54823;SDS011;40724;53.196;5.980;2023-05-15T09:15:27;21.33;;;15.00;;
54823;SDS011;40724;53.196;5.980;2023-05-15T09:17:54;14.38;;;11.65;;
54823;SDS011;40724;53.196;5.980;2023-05-15T09:22:52;14.65;;;11.48;;
54823;SDS011;40724;53.196;5.980;2023-05-15T09:25:37;14.02;;;10.65;;
54823;SDS011;40724;53.196;5.980;2023-05-15T09:28:25;17.77;;;11.57;;
54823;SDS011;40724;53.196;5.980;2023-05-15T09:30:58;14.30;;;10.05;;
54823;SDS011;40724;53.196;5.980;2023-05-15T09:33:29;16.13;;;11.20;;
54823;SDS011;40724;53.196;5.980;2023-05-15T09:35:57;14.65;;;11.13;;
54823;SDS011;40724;53.196;5.980;2023-05-15T09:38:23;16.92;;;11.10;;
54823;SDS011;40724;53.196;5.980;2023-05-15T09:40:49;13.18;;;9.82;;
54823;SDS011;40724;53.196;5.980;2023-05-15T09:43:26;21.13;;;9.57;;
54823;SDS011;40724;53.196;5.980;2023-05-15T09:45:53;14.57;;;10.10;;
54823;SDS011;40724;53.196;5.980;2023-05-15T09:48:19;10.95;;;9.82;;
54823;SDS011;40724;53.196;5.980;2023-05-15T09:50:46;11.15;;;9.07;;
54823;SDS011;40724;53.196;5.980;2023-05-15T09:53:12;9.50;;;8.50;;
54823;SDS011;40724;53.196;5.980;2023-05-15T09:55:39;11.18;;;9.95;;
54823;SDS011;40724;53.196;5.980;2023-05-15T09:58:07;12.57;;;9.45;;
54823;SDS011;40724;53.196;5.980;2023-05-15T10:00:34;17.23;;;9.68;;
54823;SDS011;40724;53.196;5.980;2023-05-15T10:03:01;14.07;;;9.80;;
54823;SDS011;40724;53.196;5.980;2023-05-15T10:05:29;13.82;;;9.73;;
54823;SDS011;40724;53.196;5.980;2023-05-15T10:07:55;13.40;;;10.38;;
54823;SDS011;40724;53.196;5.980;2023-05-15T10:10:21;14.48;;;10.10;;
54823;SDS011;40724;53.196;5.980;2023-05-15T10:12:48;13.93;;;10.63;;
54823;SDS011;40724;53.196;5.980;2023-05-15T10:15:15;12.85;;;9.68;;
54823;SDS011;40724;53.196;5.980;2023-05-15T10:17:42;13.85;;;11.45;;
54823;SDS011;40724;53.196;5.980;2023-05-15T10:20:11;11.82;;;9.82;;
54823;SDS011;40724;53.196;5.980;2023-05-15T10:22:39;11.45;;;9.65;;
54823;SDS011;40724;53.196;5.980;2023-05-15T10:27:32;18.40;;;11.65;;
54823;SDS011;40724;53.196;5.980;2023-05-15T10:30:00;13.73;;;10.98;;
54823;SDS011;40724;53.196;5.980;2023-05-15T10:32:28;10.68;;;9.57;;
54823;SDS011;40724;53.196;5.980;2023-05-15T10:34:55;12.38;;;9.52;;
54823;SDS011;40724;53.196;5.980;2023-05-15T10:37:22;10.82;;;9.55;;
54823;SDS011;40724;53.196;5.980;2023-05-15T10:39:48;15.23;;;8.60;;
54823;SDS011;40724;53.196;5.980;2023-05-15T10:42:15;9.73;;;8.43;;
54823;SDS011;40724;53.196;5.980;2023-05-15T10:44:41;9.93;;;8.88;;
54823;SDS011;40724;53.196;5.980;2023-05-15T10:47:08;14.27;;;9.80;;
54823;SDS011;40724;53.196;5.980;2023-05-15T10:49:34;14.20;;;9.57;;
54823;SDS011;40724;53.196;5.980;2023-05-15T10:52:00;8.07;;;7.20;;
54823;SDS011;40724;53.196;5.980;2023-05-15T10:54:27;11.95;;;9.35;;
54823;SDS011;40724;53.196;5.980;2023-05-15T10:56:56;11.10;;;8.68;;
54823;SDS011;40724;53.196;5.980;2023-05-15T10:59:29;12.40;;;8.02;;
54823;SDS011;40724;53.196;5.980;2023-05-15T11:01:55;12.45;;;8.68;;
54823;SDS011;40724;53.196;5.980;2023-05-15T11:04:22;9.45;;;7.60;;
54823;SDS011;40724;53.196;5.980;2023-05-15T11:06:50;9.05;;;6.93;;
54823;SDS011;40724;53.196;5.980;2023-05-15T11:09:36;10.18;;;6.50;;
54823;SDS011;40724;53.196;5.980;2023-05-15T11:12:03;7.88;;;5.38;;
54823;SDS011;40724;53.196;5.980;2023-05-15T11:14:31;8.07;;;6.18;;
54823;SDS011;40724;53.196;5.980;2023-05-15T11:16:57;11.75;;;6.85;;
54823;SDS011;40724;53.196;5.980;2023-05-15T11:21:56;7.00;;;5.97;;
54823;SDS011;40724;53.196;5.980;2023-05-15T11:24:45;6.78;;;5.47;;
54823;SDS011;40724;53.196;5.980;2023-05-15T11:27:12;11.32;;;5.63;;
54823;SDS011;40724;53.196;5.980;2023-05-15T11:32:30;9.98;;;5.70;;
54823;SDS011;40724;53.196;5.980;2023-05-15T11:35:00;8.20;;;4.88;;
54823;SDS011;40724;53.196;5.980;2023-05-15T11:37:27;7.05;;;5.53;;
54823;SDS011;40724;53.196;5.980;2023-05-15T11:39:53;7.68;;;5.53;;
54823;SDS011;40724;53.196;5.980;2023-05-15T11:42:20;9.35;;;7.38;;
54823;SDS011;40724;53.196;5.980;2023-05-15T11:44:46;7.45;;;5.53;;
54823;SDS011;40724;53.196;5.980;2023-05-15T11:47:13;8.80;;;5.30;;
54823;SDS011;40724;53.196;5.980;2023-05-15T11:49:39;10.57;;;6.28;;
54823;SDS011;40724;53.196;5.980;2023-05-15T11:52:06;7.50;;;5.60;;
54823;SDS011;40724;53.196;5.980;2023-05-15T11:54:32;7.82;;;5.55;;
54823;SDS011;40724;53.196;5.980;2023-05-15T11:56:58;15.05;;;7.07;;
54823;SDS011;40724;53.196;5.980;2023-05-15T11:59:25;8.40;;;7.10;;
54823;SDS011;40724;53.196;5.980;2023-05-15T12:01:51;9.25;;;7.13;;
54823;SDS011;40724;53.196;5.980;2023-05-15T12:04:17;10.82;;;6.90;;
54823;SDS011;40724;53.196;5.980;2023-05-15T12:06:44;9.13;;;7.35;;
54823;SDS011;40724;53.196;5.980;2023-05-15T12:09:13;11.50;;;7.13;;
54823;SDS011;40724;53.196;5.980;2023-05-15T12:11:40;10.38;;;7.55;;
54823;SDS011;40724;53.196;5.980;2023-05-15T12:14:15;14.55;;;8.25;;
54823;SDS011;40724;53.196;5.980;2023-05-15T12:16:41;11.57;;;8.88;;
54823;SDS011;40724;53.196;5.980;2023-05-15T12:19:07;14.32;;;9.20;;
54823;SDS011;40724;53.196;5.980;2023-05-15T12:21:34;12.70;;;8.85;;
54823;SDS011;40724;53.196;5.980;2023-05-15T12:24:09;10.68;;;7.93;;
54823;SDS011;40724;53.196;5.980;2023-05-15T12:26:36;9.85;;;8.20;;
54823;SDS011;40724;53.196;5.980;2023-05-15T12:29:04;11.45;;;9.07;;
54823;SDS011;40724;53.196;5.980;2023-05-15T12:31:30;9.55;;;8.13;;
54823;SDS011;40724;53.196;5.980;2023-05-15T12:33:56;9.38;;;7.90;;
54823;SDS011;40724;53.196;5.980;2023-05-15T12:36:22;8.85;;;7.13;;
54823;SDS011;40724;53.196;5.980;2023-05-15T12:38:48;9.65;;;8.02;;
54823;SDS011;40724;53.196;5.980;2023-05-15T12:41:15;8.63;;;7.05;;
54823;SDS011;40724;53.196;5.980;2023-05-15T12:43:41;10.88;;;8.05;;
54823;SDS011;40724;53.196;5.980;2023-05-15T12:46:07;10.27;;;7.53;;
54823;SDS011;40724;53.196;5.980;2023-05-15T12:48:34;11.23;;;8.20;;
54823;SDS011;40724;53.196;5.980;2023-05-15T12:51:04;8.52;;;7.57;;
54823;SDS011;40724;53.196;5.980;2023-05-15T12:53:31;9.82;;;7.35;;
54823;SDS011;40724;53.196;5.980;2023-05-15T12:56:03;11.20;;;6.85;;
54823;SDS011;40724;53.196;5.980;2023-05-15T12:58:29;11.80;;;8.05;;
54823;SDS011;40724;53.196;5.980;2023-05-15T13:00:56;9.98;;;7.75;;
54823;SDS011;40724;53.196;5.980;2023-05-15T13:03:23;13.20;;;7.45;;
54823;SDS011;40724;53.196;5.980;2023-05-15T13:05:49;9.95;;;7.63;;
54823;SDS011;40724;53.196;5.980;2023-05-15T13:08:16;13.00;;;8.43;;
54823;SDS011;40724;53.196;5.980;2023-05-15T13:10:43;9.75;;;8.10;;
54823;SDS011;40724;53.196;5.980;2023-05-15T13:13:10;9.80;;;8.10;;
54823;SDS011;40724;53.196;5.980;2023-05-15T13:15:37;9.93;;;7.43;;
54823;SDS011;40724;53.196;5.980;2023-05-15T13:18:10;10.43;;;7.97;;
54823;SDS011;40724;53.196;5.980;2023-05-15T13:20:38;9.85;;;8.40;;
54823;SDS011;40724;53.196;5.980;2023-05-15T13:23:06;10.15;;;7.60;;
54823;SDS011;40724;53.196;5.980;2023-05-15T13:25:32;13.23;;;9.88;;
54823;SDS011;40724;53.196;5.980;2023-05-15T13:27:59;9.45;;;7.82;;
54823;SDS011;40724;53.196;5.980;2023-05-15T13:30:26;10.43;;;7.47;;
54823;SDS011;40724;53.196;5.980;2023-05-15T13:32:53;9.80;;;7.28;;
54823;SDS011;40724;53.196;5.980;2023-05-15T13:35:19;11.18;;;7.07;;
54823;SDS011;40724;53.196;5.980;2023-05-15T13:37:45;11.23;;;7.30;;
54823;SDS011;40724;53.196;5.980;2023-05-15T13:40:11;7.10;;;5.97;;
54823;SDS011;40724;53.196;5.980;2023-05-15T13:42:38;9.30;;;6.07;;
54823;SDS011;40724;53.196;5.980;2023-05-15T13:45:05;10.02;;;6.72;;
54823;SDS011;40724;53.196;5.980;2023-05-15T13:47:32;9.55;;;7.15;;
54823;SDS011;40724;53.196;5.980;2023-05-15T13:49:58;7.57;;;5.47;;
54823;SDS011;40724;53.196;5.980;2023-05-15T13:52:24;8.02;;;6.10;;
54823;SDS011;40724;53.196;5.980;2023-05-15T13:54:52;8.55;;;5.95;;
54823;SDS011;40724;53.196;5.980;2023-05-15T13:57:18;7.45;;;5.88;;
54823;SDS011;40724;53.196;5.980;2023-05-15T13:59:44;8.40;;;5.95;;
54823;SDS011;40724;53.196;5.980;2023-05-15T14:02:11;8.40;;;6.18;;
54823;SDS011;40724;53.196;5.980;2023-05-15T14:04:37;9.05;;;5.68;;
54823;SDS011;40724;53.196;5.980;2023-05-15T14:07:03;7.38;;;6.32;;
54823;SDS011;40724;53.196;5.980;2023-05-15T14:09:29;7.60;;;5.93;;
54823;SDS011;40724;53.196;5.980;2023-05-15T14:11:55;6.88;;;5.65;;
54823;SDS011;40724;53.196;5.980;2023-05-15T14:14:21;6.95;;;5.45;;
54823;SDS011;40724;53.196;5.980;2023-05-15T14:16:48;8.80;;;6.88;;
54823;SDS011;40724;53.196;5.980;2023-05-15T14:19:14;6.85;;;5.90;;
54823;SDS011;40724;53.196;5.980;2023-05-15T14:21:40;8.27;;;6.65;;
54823;SDS011;40724;53.196;5.980;2023-05-15T14:24:06;8.70;;;5.63;;
54823;SDS011;40724;53.196;5.980;2023-05-15T14:26:33;8.23;;;6.57;;
54823;SDS011;40724;53.196;5.980;2023-05-15T14:28:59;6.57;;;5.53;;
54823;SDS011;40724;53.196;5.980;2023-05-15T14:31:25;7.13;;;5.43;;
54823;SDS011;40724;53.196;5.980;2023-05-15T14:33:52;9.85;;;6.38;;
54823;SDS011;40724;53.196;5.980;2023-05-15T14:36:18;6.90;;;5.50;;
54823;SDS011;40724;53.196;5.980;2023-05-15T14:38:44;7.30;;;5.22;;
54823;SDS011;40724;53.196;5.980;2023-05-15T14:41:13;6.55;;;5.40;;
54823;SDS011;40724;53.196;5.980;2023-05-15T14:43:39;8.07;;;5.38;;
54823;SDS011;40724;53.196;5.980;2023-05-15T14:46:06;5.95;;;4.47;;
54823;SDS011;40724;53.196;5.980;2023-05-15T14:48:32;6.63;;;4.80;;
54823;SDS011;40724;53.196;5.980;2023-05-15T14:50:58;7.28;;;4.80;;
54823;SDS011;40724;53.196;5.980;2023-05-15T14:53:25;7.03;;;5.47;;
54823;SDS011;40724;53.196;5.980;2023-05-15T14:55:51;7.13;;;6.05;;
54823;SDS011;40724;53.196;5.980;2023-05-15T14:58:17;11.00;;;6.70;;